Time;durP1;ratioP1;P1;durP2;ratioP2;P2;SDS_P1;SDS_P2;PMS_P1;PMS_P2;Temp;Humidity;BMP_temperature;BMP_pressure;BME280_temperature;BME280_humidity;BME280_pressure;Samples;Min_cycle;Max_cycle;Signal;HPM_P1;HPM_P2
2023/01/15 00:02:17;;;;;;;23.92;10.75;;;;;;;;;;5030751;28;20436;-79
2023/01/15 00:04:42;;;;;;;20.48;10.50;;;;;;;;;;5030310;28;20064;-79
2023/01/15 00:07:08;;;;;;;22.30;11.23;;;;;;;;;;5029353;28;20032;-78
2023/01/15 00:09:33;;;;;;;24.33;11.40;;;;;;;;;;5031816;28;20033;-79
2023/01/15 00:11:59;;;;;;;25.95;11.80;;;;;;;;;;5032047;28;20057;-79
2023/01/15 00:14:24;;;;;;;;;;;;;;;;;;5034553;28;20059;-79
2023/01/15 00:16:51;;;;;;;24.63;11.10;;;;;;;;;;5034419;28;20439;-79
2023/01/15 00:19:16;;;;;;;;;;;;;;;;;;5032847;28;20104;-78
2023/01/15 00:21:42;;;;;;;27.65;11.40;;;;;;;;;;5032623;28;20003;-79
2023/01/15 00:29:36;;;;;;;23.08;10.60;;;;;;;;;;5033975;28;20039;-79
2023/01/15 00:32:03;;;;;;;24.70;10.32;;;;;;;;;;5020086;28;20467;-78
2023/01/15 00:34:29;;;;;;;24.85;11.00;;;;;;;;;;5032096;28;20563;-79
2023/01/15 00:36:55;;;;;;;;;;;;;;;;;;5030376;28;20026;-79
2023/01/15 00:39:20;;;;;;;23.45;10.75;;;;;;;;;;5035293;28;19920;-79
2023/01/15 00:41:46;;;;;;;23.10;11.18;;;;;;;;;;5030325;28;20037;-80
2023/01/15 00:44:11;;;;;;;20.05;10.27;;;;;;;;;;5031988;28;20045;-79
2023/01/15 00:46:37;;;;;;;23.45;11.15;;;;;;;;;;5036917;28;20033;-80
2023/01/15 00:49:03;;;;;;;27.85;10.77;;;;;;;;;;5032226;28;20037;-79
2023/01/15 00:51:28;;;;;;;25.08;11.00;;;;;;;;;;5040389;28;20032;-79
2023/01/15 00:53:54;;;;;;;24.27;11.40;;;;;;;;;;5032486;28;20120;-80
2023/01/15 00:56:19;;;;;;;21.80;10.82;;;;;;;;;;5031971;28;20033;-80
2023/01/15 00:58:46;;;;;;;23.77;10.55;;;;;;;;;;5033145;28;20033;-78
2023/01/15 01:01:12;;;;;;;23.45;10.40;;;;;;;;;;5048669;28;20017;-80
2023/01/15 01:03:38;;;;;;;27.98;11.90;;;;;;;;;;5032054;28;20644;-78
2023/01/15 01:06:03;;;;;;;24.92;10.15;;;;;;;;;;5031757;28;20033;-80
2023/01/15 01:08:29;;;;;;;24.98;10.63;;;;;;;;;;5015132;28;20072;-80
2023/01/15 01:11:04;;;;;;;23.90;10.85;;;;;;;;;;5031506;28;20034;-80
2023/01/15 01:13:29;;;;;;;24.60;9.68;;;;;;;;;;5021220;28;20069;-80
2023/01/15 01:15:55;;;;;;;21.50;10.40;;;;;;;;;;5031456;28;20435;-80
2023/01/15 01:18:20;;;;;;;21.20;9.65;;;;;;;;;;5061084;28;20425;-79
2023/01/15 01:20:46;;;;;;;22.67;9.15;;;;;;;;;;5019298;28;20037;-78
2023/01/15 01:23:11;;;;;;;25.80;9.98;;;;;;;;;;5032588;28;20032;-79
2023/01/15 01:25:37;;;;;;;31.73;9.82;;;;;;;;;;5039938;28;20108;-80
2023/01/15 01:28:02;;;;;;;25.50;10.60;;;;;;;;;;5032583;28;20033;-79
2023/01/15 01:30:28;;;;;;;20.73;10.55;;;;;;;;;;5031111;28;20041;-79
2023/01/15 01:32:53;;;;;;;23.42;8.95;;;;;;;;;;5033873;28;20043;-79
2023/01/15 01:35:19;;;;;;;20.50;10.27;;;;;;;;;;5036735;28;20052;-80
2023/01/15 01:37:48;;;;;;;25.70;8.82;;;;;;;;;;5047730;28;20034;-80
2023/01/15 01:40:13;;;;;;;22.40;8.98;;;;;;;;;;5031037;28;20268;-78
2023/01/15 01:42:39;;;;;;;25.20;9.88;;;;;;;;;;5032483;28;20040;-80
2023/01/15 01:45:24;;;;;;;21.35;9.25;;;;;;;;;;5012564;28;20025;-79
2023/01/15 01:47:50;;;;;;;23.98;9.25;;;;;;;;;;5030682;28;20040;-79
2023/01/15 01:50:16;;;;;;;26.55;9.23;;;;;;;;;;5032563;28;20025;-80
2023/01/15 01:52:43;;;;;;;20.83;8.77;;;;;;;;;;5031030;28;20059;-80
2023/01/15 01:55:09;;;;;;;21.52;8.82;;;;;;;;;;5031808;28;20025;-79
2023/01/15 01:57:35;;;;;;;21.77;8.93;;;;;;;;;;5030584;28;20041;-79
2023/01/15 02:00:00;;;;;;;23.98;8.57;;;;;;;;;;5023939;28;20036;-79
2023/01/15 02:02:26;;;;;;;21.92;8.50;;;;;;;;;;5030969;28;20030;-79
2023/01/15 02:04:52;;;;;;;18.90;9.27;;;;;;;;;;5012112;28;20025;-80
2023/01/15 02:07:17;;;;;;;24.02;8.85;;;;;;;;;;5030929;28;20072;-79
2023/01/15 02:09:43;;;;;;;18.95;8.45;;;;;;;;;;5030342;28;20033;-79
2023/01/15 02:12:10;;;;;;;22.23;10.07;;;;;;;;;;5031151;28;20589;-79
2023/01/15 02:14:38;;;;;;;26.85;9.00;;;;;;;;;;5030326;28;20072;-80
2023/01/15 02:17:11;;;;;;;26.02;9.32;;;;;;;;;;5030486;28;20025;-79
2023/01/15 02:19:49;;;;;;;17.17;8.82;;;;;;;;;;5030125;28;20048;-79
2023/01/15 02:22:23;;;;;;;21.88;8.52;;;;;;;;;;5030222;28;20119;-79
2023/01/15 02:24:49;;;;;;;21.05;8.77;;;;;;;;;;5047802;28;20095;-80
2023/01/15 02:27:19;;;;;;;17.58;7.90;;;;;;;;;;5030043;28;20037;-79
2023/01/15 02:29:45;;;;;;;21.85;8.50;;;;;;;;;;5014301;28;20060;-79
2023/01/15 02:32:16;;;;;;;22.50;9.55;;;;;;;;;;5029259;28;20848;-78
2023/01/15 02:34:44;;;;;;;29.15;8.50;;;;;;;;;;5025798;28;20045;-79
2023/01/15 02:37:11;;;;;;;24.13;9.27;;;;;;;;;;5029369;28;20029;-79
2023/01/15 02:39:39;;;;;;;22.23;8.98;;;;;;;;;;5014761;28;20034;-80
2023/01/15 02:42:05;;;;;;;27.23;8.55;;;;;;;;;;5032797;28;20066;-79
2023/01/15 02:44:40;;;;;;;22.15;9.38;;;;;;;;;;5014488;28;20037;-79
2023/01/15 02:47:05;;;;;;;21.52;8.35;;;;;;;;;;5026444;28;20029;-79
2023/01/15 02:49:32;;;;;;;23.48;8.65;;;;;;;;;;5029879;28;20033;-79
2023/01/15 02:52:03;;;;;;;26.13;9.00;;;;;;;;;;5013968;28;20037;-80
2023/01/15 02:54:31;;;;;;;23.30;8.57;;;;;;;;;;5013358;28;20033;-80
2023/01/15 02:56:57;;;;;;;28.33;9.77;;;;;;;;;;5029468;28;20021;-80
2023/01/15 02:59:22;;;;;;;;;;;;;;;;;;5013961;28;20037;-79
2023/01/15 03:01:55;;;;;;;29.02;9.20;;;;;;;;;;5029358;28;19915;-79
2023/01/15 03:04:23;;;;;;;20.80;8.35;;;;;;;;;;5029746;28;20514;-79
2023/01/15 03:06:53;;;;;;;26.13;8.75;;;;;;;;;;5034723;28;20036;-79
2023/01/15 03:09:21;;;;;;;28.15;8.35;;;;;;;;;;5018072;28;20039;-79
2023/01/15 03:11:49;;;;;;;18.45;9.02;;;;;;;;;;5043509;28;20124;-79
2023/01/15 03:14:22;;;;;;;28.17;8.80;;;;;;;;;;5023229;28;20086;-79
2023/01/15 03:16:53;;;;;;;26.42;8.70;;;;;;;;;;4999909;28;20030;-79
2023/01/15 03:19:18;;;;;;;;;;;;;;;;;;5024728;28;20496;-79
2023/01/15 03:21:56;;;;;;;28.05;9.30;;;;;;;;;;5047937;28;20410;-79
2023/01/15 03:24:28;;;;;;;28.65;9.40;;;;;;;;;;5013381;28;20295;-79
2023/01/15 03:26:54;;;;;;;35.20;8.82;;;;;;;;;;5046262;28;20503;-79
2023/01/15 03:29:20;;;;;;;26.00;8.27;;;;;;;;;;5028563;28;20066;-79
2023/01/15 03:31:48;;;;;;;26.40;9.27;;;;;;;;;;5028911;28;20060;-80
2023/01/15 03:34:14;;;;;;;30.30;8.32;;;;;;;;;;5028697;28;20112;-79
2023/01/15 03:36:41;;;;;;;24.65;8.88;;;;;;;;;;4994080;28;20044;-79
2023/01/15 03:39:06;;;;;;;29.25;9.40;;;;;;;;;;5041588;28;20037;-79
2023/01/15 03:42:26;;;;;;;23.70;10.35;;;;;;;;;;5019169;28;20061;-80
2023/01/15 03:45:10;;;;;;;24.88;8.57;;;;;;;;;;5045915;28;20389;-80
2023/01/15 03:47:40;;;;;;;32.63;9.35;;;;;;;;;;5038497;28;20083;-80
2023/01/15 03:50:11;;;;;;;32.97;9.23;;;;;;;;;;5013673;28;20112;-80
2023/01/15 03:52:44;;;;;;;26.83;9.30;;;;;;;;;;5037750;28;20734;-80
2023/01/15 03:55:28;;;;;;;26.52;9.20;;;;;;;;;;5030735;28;20887;-80
2023/01/15 03:58:01;;;;;;;32.95;10.25;;;;;;;;;;5032013;28;20480;-80
2023/01/15 04:00:41;;;;;;;29.95;9.07;;;;;;;;;;5039741;28;20026;-80
2023/01/15 04:03:07;;;;;;;35.42;9.35;;;;;;;;;;5022773;28;20033;-80
2023/01/15 04:05:34;;;;;;;25.52;9.13;;;;;;;;;;5016516;28;20033;-80
2023/01/15 04:07:59;;;;;;;24.25;9.50;;;;;;;;;;5030288;28;20037;-80
2023/01/15 04:10:26;;;;;;;24.30;9.50;;;;;;;;;;5029769;28;20128;-80
2023/01/15 04:12:52;;;;;;;;;;;;;;;;;;5033340;28;20049;-80
2023/01/15 04:15:18;;;;;;;38.10;9.48;;;;;;;;;;5049481;28;19936;-80
2023/01/15 04:17:44;;;;;;;;;;;;;;;;;;5013361;28;20041;-80
2023/01/15 04:20:09;;;;;;;30.17;8.52;;;;;;;;;;5028632;28;19909;-80
2023/01/15 04:22:38;;;;;;;30.77;9.45;;;;;;;;;;5016687;28;20044;-80
2023/01/15 04:25:04;;;;;;;25.70;9.65;;;;;;;;;;5012727;28;20026;-80
2023/01/15 04:27:30;;;;;;;32.15;8.90;;;;;;;;;;5032115;28;20120;-80
2023/01/15 04:29:56;;;;;;;35.80;9.52;;;;;;;;;;5035154;28;20029;-80
2023/01/15 04:32:21;;;;;;;29.50;9.80;;;;;;;;;;5031724;28;20230;-80
2023/01/15 04:34:47;;;;;;;28.67;9.05;;;;;;;;;;5032425;28;20369;-80
2023/01/15 04:37:14;;;;;;;34.58;9.00;;;;;;;;;;5033251;28;20516;-79
2023/01/15 04:39:40;;;;;;;27.15;9.32;;;;;;;;;;5032097;28;20496;-79
2023/01/15 04:44:49;;;;;;;31.70;9.98;;;;;;;;;;5035666;28;20033;-79
2023/01/15 04:47:15;;;;;;;26.33;8.48;;;;;;;;;;5029884;28;20026;-79
2023/01/15 04:49:40;;;;;;;23.48;8.43;;;;;;;;;;5035004;28;20048;-79
2023/01/15 04:52:05;;;;;;;28.75;8.77;;;;;;;;;;5033741;28;20063;-79
2023/01/15 04:54:31;;;;;;;22.10;7.90;;;;;;;;;;5033396;28;20037;-79
2023/01/15 04:56:56;;;;;;;24.27;8.88;;;;;;;;;;5032030;28;20032;-80
2023/01/15 04:59:23;;;;;;;35.35;8.52;;;;;;;;;;5018742;28;20038;-78
2023/01/15 05:01:48;;;;;;;28.27;8.93;;;;;;;;;;5031417;28;20021;-79
2023/01/15 05:04:14;;;;;;;33.33;9.15;;;;;;;;;;5031970;28;20132;-78
2023/01/15 05:06:39;;;;;;;25.63;9.00;;;;;;;;;;5032424;28;20037;-79
2023/01/15 05:09:05;;;;;;;25.73;9.00;;;;;;;;;;5033051;28;20492;-80
2023/01/15 05:11:33;;;;;;;24.30;9.32;;;;;;;;;;5031535;28;20077;-80
2023/01/15 05:13:58;;;;;;;28.85;8.88;;;;;;;;;;5031452;28;20042;-80
2023/01/15 05:16:24;;;;;;;32.50;9.27;;;;;;;;;;5031355;28;20037;-80
2023/01/15 05:18:50;;;;;;;;;;;;;;;;;;5033263;28;20120;-80
2023/01/15 05:21:19;;;;;;;29.08;9.50;;;;;;;;;;5048319;28;20000;-80
2023/01/15 05:23:45;;;;;;;30.55;9.38;;;;;;;;;;5033714;28;20041;-79
2023/01/15 05:26:11;;;;;;;27.08;9.20;;;;;;;;;;5017264;28;20370;-80
2023/01/15 05:28:36;;;;;;;30.00;9.25;;;;;;;;;;5030518;28;20072;-79
2023/01/15 05:31:06;;;;;;;32.05;9.20;;;;;;;;;;5031570;28;20036;-80
2023/01/15 05:33:32;;;;;;;32.55;9.68;;;;;;;;;;5005489;28;20091;-80
2023/01/15 05:36:01;;;;;;;29.65;9.88;;;;;;;;;;5032736;28;20025;-79
2023/01/15 05:38:27;;;;;;;25.05;9.52;;;;;;;;;;5030802;28;20041;-79
2023/01/15 05:40:52;;;;;;;32.17;10.48;;;;;;;;;;5032479;28;20104;-80
2023/01/15 05:43:18;;;;;;;29.58;9.43;;;;;;;;;;5031075;28;20038;-80
2023/01/15 05:45:43;;;;;;;30.73;10.10;;;;;;;;;;5043025;28;20094;-80
2023/01/15 05:48:09;;;;;;;25.65;10.35;;;;;;;;;;5042346;28;20489;-80
2023/01/15 05:50:34;;;;;;;25.13;9.45;;;;;;;;;;5032035;28;20041;-80
2023/01/15 05:53:00;;;;;;;29.25;9.68;;;;;;;;;;5029759;28;20473;-80
2023/01/15 05:55:25;;;;;;;29.83;9.65;;;;;;;;;;5032135;28;20078;-80
2023/01/15 05:57:50;;;;;;;29.98;10.50;;;;;;;;;;5031613;28;20030;-80
2023/01/15 06:00:16;;;;;;;26.08;9.60;;;;;;;;;;5024242;28;20048;-80
2023/01/15 06:02:42;;;;;;;26.40;9.98;;;;;;;;;;5031934;28;20563;-79
2023/01/15 06:05:07;;;;;;;21.80;9.85;;;;;;;;;;5032130;28;20048;-81
2023/01/15 06:07:33;;;;;;;31.23;9.80;;;;;;;;;;5031864;28;20033;-79
2023/01/15 06:09:58;;;;;;;30.50;10.27;;;;;;;;;;5032243;28;20040;-80
2023/01/15 06:12:24;;;;;;;24.35;9.90;;;;;;;;;;5031549;28;20051;-79
2023/01/15 06:14:49;;;;;;;26.83;9.32;;;;;;;;;;5013989;28;20076;-79
2023/01/15 06:17:15;;;;;;;24.27;9.18;;;;;;;;;;5031876;28;20497;-80
2023/01/15 06:19:40;;;;;;;27.52;8.85;;;;;;;;;;5030856;28;20072;-79
2023/01/15 06:22:06;;;;;;;29.92;8.07;;;;;;;;;;5030762;28;20029;-80
2023/01/15 06:24:31;;;;;;;23.50;8.68;;;;;;;;;;5031055;28;20041;-79
2023/01/15 06:26:56;;;;;;;25.70;9.75;;;;;;;;;;5014134;28;20048;-79
2023/01/15 06:29:22;;;;;;;28.73;9.07;;;;;;;;;;5030797;28;20120;-78
2023/01/15 06:31:48;;;;;;;23.77;9.40;;;;;;;;;;5019805;28;20033;-78
2023/01/15 06:34:13;;;;;;;26.42;9.43;;;;;;;;;;5024848;28;20386;-79
2023/01/15 06:36:39;;;;;;;31.13;10.00;;;;;;;;;;5012356;28;20033;-80
2023/01/15 06:39:04;;;;;;;26.38;11.27;;;;;;;;;;5031378;28;20032;-80
2023/01/15 06:47:21;;;;;;;23.48;9.70;;;;;;;;;;5025319;28;20034;-79
2023/01/15 06:49:56;;;;;;;26.65;9.98;;;;;;;;;;5030770;28;20107;-80
2023/01/15 06:52:22;;;;;;;25.20;9.60;;;;;;;;;;5013016;28;20443;-79
2023/01/15 06:54:48;;;;;;;26.40;9.05;;;;;;;;;;5029029;28;20033;-80
2023/01/15 06:57:13;;;;;;;24.45;10.50;;;;;;;;;;5032410;28;20040;-80
2023/01/15 06:59:38;;;;;;;30.58;9.90;;;;;;;;;;5035531;28;20033;-78
2023/01/15 07:02:04;;;;;;;30.73;10.13;;;;;;;;;;5037904;28;20037;-80
2023/01/15 07:04:30;;;;;;;25.42;10.93;;;;;;;;;;5038261;28;20033;-81
2023/01/15 07:06:56;;;;;;;31.45;9.23;;;;;;;;;;5030795;28;20041;-80
2023/01/15 07:09:21;;;;;;;19.75;8.57;;;;;;;;;;5037433;28;20732;-79
2023/01/15 07:11:50;;;;;;;22.40;8.73;;;;;;;;;;5030977;28;20492;-79
2023/01/15 07:14:16;;;;;;;24.45;9.50;;;;;;;;;;5029241;28;20063;-79
2023/01/15 07:16:41;;;;;;;26.90;10.25;;;;;;;;;;5029482;28;20499;-79
2023/01/15 07:19:07;;;;;;;17.45;8.85;;;;;;;;;;5030627;28;20108;-80
2023/01/15 07:21:33;;;;;;;26.02;10.10;;;;;;;;;;5030235;28;20034;-81
2023/01/15 07:23:58;;;;;;;21.65;8.90;;;;;;;;;;5029301;28;20044;-80
2023/01/15 07:26:24;;;;;;;22.48;10.13;;;;;;;;;;5029128;28;20048;-80
2023/01/15 07:28:49;;;;;;;22.60;9.35;;;;;;;;;;5030248;28;20029;-80
2023/01/15 07:31:15;;;;;;;18.80;9.02;;;;;;;;;;5030628;28;20026;-79
2023/01/15 07:33:40;;;;;;;22.88;8.57;;;;;;;;;;5030124;28;20116;-80
2023/01/15 07:36:06;;;;;;;23.90;9.10;;;;;;;;;;5035647;28;20528;-80
2023/01/15 07:38:31;;;;;;;15.85;7.82;;;;;;;;;;5033693;28;20033;-80
2023/01/15 07:51:53;;;;;;;21.30;9.20;;;;;;;;;;5021371;28;20052;-81
2023/01/15 07:54:19;;;;;;;22.55;8.38;;;;;;;;;;5024656;28;20037;-80
2023/01/15 07:56:44;;;;;;;19.20;9.50;;;;;;;;;;5030192;28;20029;-80
2023/01/15 07:59:09;;;;;;;23.17;9.88;;;;;;;;;;5030245;28;20034;-81
2023/01/15 08:01:35;;;;;;;23.58;9.40;;;;;;;;;;5030807;28;20029;-79
2023/01/15 08:04:00;;;;;;;21.67;9.35;;;;;;;;;;5028402;28;20022;-81
2023/01/15 08:06:26;;;;;;;25.80;10.60;;;;;;;;;;5024781;28;20041;-81
2023/01/15 08:08:51;;;;;;;25.95;9.25;;;;;;;;;;5028699;28;20144;-81
2023/01/15 08:16:50;;;;;;;26.50;9.07;;;;;;;;;;5012624;28;20501;-81
2023/01/15 08:19:15;;;;;;;25.13;8.73;;;;;;;;;;5030205;28;20018;-81
2023/01/15 08:21:41;;;;;;;21.63;9.45;;;;;;;;;;5012720;28;20061;-83
2023/01/15 08:24:06;;;;;;;20.70;8.68;;;;;;;;;;5029079;28;20037;-82
2023/01/15 08:26:32;;;;;;;24.27;7.97;;;;;;;;;;5030986;28;20037;-82
2023/01/15 08:28:58;;;;;;;21.55;8.60;;;;;;;;;;5029046;28;20022;-81
2023/01/15 08:31:23;;;;;;;27.58;9.35;;;;;;;;;;5029002;28;20047;-82
2023/01/15 08:33:49;;;;;;;19.50;8.82;;;;;;;;;;5032286;28;20041;-80
2023/01/15 08:36:17;;;;;;;17.55;8.50;;;;;;;;;;5032414;28;20025;-84
2023/01/15 08:38:42;;;;;;;18.67;8.63;;;;;;;;;;5016196;28;21148;-81
2023/01/15 08:41:08;;;;;;;19.33;8.70;;;;;;;;;;5034082;28;20087;-80
2023/01/15 08:43:33;;;;;;;20.63;8.55;;;;;;;;;;5033052;28;20083;-80
2023/01/15 08:45:59;;;;;;;22.13;8.50;;;;;;;;;;5033995;28;20087;-81
2023/01/15 08:48:25;;;;;;;18.25;8.13;;;;;;;;;;5015706;28;20857;-80
2023/01/15 08:50:50;;;;;;;22.55;9.30;;;;;;;;;;5031097;28;20111;-81
2023/01/15 08:53:17;;;;;;;22.27;9.25;;;;;;;;;;5031284;28;20444;-81
2023/01/15 08:55:43;;;;;;;23.50;8.55;;;;;;;;;;5015889;28;20025;-82
2023/01/15 08:58:09;;;;;;;21.65;9.63;;;;;;;;;;5028885;28;20399;-81
2023/01/15 09:00:34;;;;;;;21.45;8.65;;;;;;;;;;5031499;28;20043;-81
2023/01/15 09:03:00;;;;;;;19.02;8.65;;;;;;;;;;5031629;28;20116;-81
2023/01/15 09:05:26;;;;;;;23.63;9.40;;;;;;;;;;5032572;28;20111;-81
2023/01/15 09:07:52;;;;;;;22.08;9.35;;;;;;;;;;5033131;28;20037;-82
2023/01/15 09:10:18;;;;;;;23.63;9.68;;;;;;;;;;5032563;28;20033;-81
2023/01/15 09:12:43;;;;;;;22.38;8.38;;;;;;;;;;5031639;28;20049;-81
2023/01/15 09:15:09;;;;;;;21.20;7.78;;;;;;;;;;5033235;28;20116;-82
2023/01/15 09:17:39;;;;;;;22.25;8.13;;;;;;;;;;5031561;28;20026;-80
2023/01/15 09:20:05;;;;;;;23.98;7.47;;;;;;;;;;5032807;28;20079;-80
2023/01/15 09:22:30;;;;;;;;;;;;;;;;;;5031765;28;20026;-81
2023/01/15 09:24:56;;;;;;;17.75;7.95;;;;;;;;;;5029617;28;19912;-80
2023/01/15 09:27:21;;;;;;;22.35;9.05;;;;;;;;;;5031421;28;20037;-81
2023/01/15 09:29:47;;;;;;;21.40;9.05;;;;;;;;;;5032258;28;20033;-81
2023/01/15 09:32:15;;;;;;;19.17;8.60;;;;;;;;;;5030248;28;20389;-81
2023/01/15 09:34:41;;;;;;;21.02;8.13;;;;;;;;;;5027025;28;20044;-80
2023/01/15 09:37:06;;;;;;;15.38;7.60;;;;;;;;;;5032005;28;20081;-83
2023/01/15 09:39:32;;;;;;;19.88;9.07;;;;;;;;;;5032665;28;20579;-82
2023/01/15 09:42:12;;;;;;;18.70;8.73;;;;;;;;;;5030978;28;20022;-81
2023/01/15 09:44:47;;;;;;;16.38;8.45;;;;;;;;;;5031418;28;20075;-81
2023/01/15 09:47:32;;;;;;;24.10;8.02;;;;;;;;;;5030919;28;20757;-81
2023/01/15 09:50:16;;;;;;;21.67;8.88;;;;;;;;;;5046053;28;20033;-81
2023/01/15 09:52:48;;;;;;;18.95;8.32;;;;;;;;;;5032215;28;20045;-81
2023/01/15 09:55:16;;;;;;;22.45;8.45;;;;;;;;;;5030576;28;21483;-81
2023/01/15 09:57:42;;;;;;;21.55;7.82;;;;;;;;;;5030843;28;20128;-82
2023/01/15 10:00:12;;;;;;;22.13;8.75;;;;;;;;;;5032119;28;20028;-80
2023/01/15 10:02:52;;;;;;;30.80;9.27;;;;;;;;;;5017987;28;20039;-81
2023/01/15 10:05:17;;;;;;;24.45;8.55;;;;;;;;;;5033762;28;20033;-80
2023/01/15 10:07:49;;;;;;;27.27;8.55;;;;;;;;;;5033950;28;20095;-81
2023/01/15 10:10:15;;;;;;;16.83;8.15;;;;;;;;;;5032525;28;20033;-80
2023/01/15 10:12:43;;;;;;;24.25;8.60;;;;;;;;;;5036568;28;20063;-82
2023/01/15 10:15:21;;;;;;;18.70;9.00;;;;;;;;;;5018426;28;20060;-82
2023/01/15 10:17:48;;;;;;;22.02;8.43;;;;;;;;;;5014362;28;20408;-81
2023/01/15 10:20:15;;;;;;;17.63;8.25;;;;;;;;;;5016473;28;20029;-82
2023/01/15 10:22:47;;;;;;;21.63;9.15;;;;;;;;;;5032888;28;20036;-83
2023/01/15 10:25:16;;;;;;;25.67;9.07;;;;;;;;;;5030045;28;20041;-81
2023/01/15 10:27:44;;;;;;;22.33;8.02;;;;;;;;;;5030446;28;20040;-82
2023/01/15 10:30:36;;;;;;;23.58;9.02;;;;;;;;;;5015804;28;20516;-82
2023/01/15 10:33:03;;;;;;;19.77;8.13;;;;;;;;;;5032939;28;20045;-81
2023/01/15 10:36:07;;;;;;;21.42;9.32;;;;;;;;;;5012546;28;20034;-83
2023/01/15 10:38:42;;;;;;;24.65;8.10;;;;;;;;;;4996853;28;20040;-83
2023/01/15 10:41:11;;;;;;;21.95;8.10;;;;;;;;;;4990684;28;20045;-82
2023/01/15 10:43:39;;;;;;;14.65;7.78;;;;;;;;;;5015516;28;20071;-82
2023/01/15 10:46:25;;;;;;;18.67;8.05;;;;;;;;;;5032119;28;20046;-82
2023/01/15 10:48:58;;;;;;;20.02;7.95;;;;;;;;;;5033661;28;20060;-81
2023/01/15 10:51:36;;;;;;;15.75;7.88;;;;;;;;;;5029250;28;20076;-81
2023/01/15 10:54:03;;;;;;;21.15;8.20;;;;;;;;;;5032012;28;20045;-81
2023/01/15 10:56:29;;;;;;;22.42;9.10;;;;;;;;;;5031124;28;20079;-82
2023/01/15 10:59:08;;;;;;;18.95;8.55;;;;;;;;;;5032034;28;20412;-82
2023/01/15 11:01:35;;;;;;;20.77;8.98;;;;;;;;;;5048569;28;20491;-81
2023/01/15 11:04:00;;;;;;;20.60;9.32;;;;;;;;;;5034618;28;20037;-81
2023/01/15 11:06:29;;;;;;;22.17;8.50;;;;;;;;;;5032632;28;20496;-81
2023/01/15 11:08:54;;;;;;;17.33;8.15;;;;;;;;;;5014618;28;20532;-82
2023/01/15 11:20:03;;;;;;;20.27;7.90;;;;;;;;;;5034299;28;20033;-82
2023/01/15 11:22:28;;;;;;;26.48;8.00;;;;;;;;;;5026545;28;20471;-82
2023/01/15 11:24:55;;;;;;;14.93;8.48;;;;;;;;;;5026028;28;20045;-81
2023/01/15 11:27:31;;;;;;;15.50;7.85;;;;;;;;;;5026031;28;20057;-82
2023/01/15 11:29:57;;;;;;;13.85;7.05;;;;;;;;;;5031391;28;20033;-82
2023/01/15 11:32:33;;;;;;;15.25;7.63;;;;;;;;;;5029258;28;20377;-82
2023/01/15 11:35:00;;;;;;;17.88;8.73;;;;;;;;;;5020053;28;20412;-82
2023/01/15 11:37:26;;;;;;;16.65;7.97;;;;;;;;;;5026135;28;20040;-82
2023/01/15 11:39:52;;;;;;;16.90;6.95;;;;;;;;;;5031028;28;20033;-83
2023/01/15 11:50:48;;;;;;;17.02;8.63;;;;;;;;;;5024550;28;20037;-84
2023/01/15 11:53:17;;;;;;;14.05;7.65;;;;;;;;;;5013767;28;20854;-81
2023/01/15 11:55:49;;;;;;;18.27;7.88;;;;;;;;;;5017221;28;20512;-82
2023/01/15 11:58:14;;;;;;;16.25;7.90;;;;;;;;;;5033215;28;20033;-82
2023/01/15 12:00:42;;;;;;;15.55;7.38;;;;;;;;;;5029584;28;20049;-82
2023/01/15 12:03:12;;;;;;;13.25;6.53;;;;;;;;;;5010458;28;20050;-82
2023/01/15 12:05:43;;;;;;;18.20;8.35;;;;;;;;;;5035638;28;20064;-82
2023/01/15 12:08:35;;;;;;;19.90;8.23;;;;;;;;;;5016253;28;20029;-83
2023/01/15 12:11:12;;;;;;;18.75;8.05;;;;;;;;;;5026242;28;20050;-82
2023/01/15 12:13:42;;;;;;;20.75;9.52;;;;;;;;;;5042565;28;20053;-82
2023/01/15 12:16:26;;;;;;;19.35;9.60;;;;;;;;;;5035529;28;20026;-83
2023/01/15 12:19:10;;;;;;;19.88;10.40;;;;;;;;;;5019365;28;20396;-83
2023/01/15 12:21:43;;;;;;;19.63;10.85;;;;;;;;;;5029999;28;20523;-82
2023/01/15 12:24:20;;;;;;;25.38;12.55;;;;;;;;;;5028914;28;20062;-82
2023/01/15 12:26:45;;;;;;;;;;;;;;;;;;5032741;28;20091;-82
2023/01/15 12:29:21;;;;;;;18.50;10.40;;;;;;;;;;5035685;28;19909;-83
2023/01/15 12:31:48;;;;;;;19.67;9.50;;;;;;;;;;5026212;28;20037;-83
2023/01/15 12:34:20;;;;;;;19.27;9.63;;;;;;;;;;5034165;28;20041;-82
2023/01/15 12:36:54;;;;;;;23.13;9.80;;;;;;;;;;5038307;28;20033;-83
2023/01/15 12:39:41;;;;;;;25.42;11.27;;;;;;;;;;5035310;28;20037;-85
2023/01/15 12:44:59;;;;;;;18.48;8.20;;;;;;;;;;5045757;28;20397;-83
2023/01/15 12:47:47;;;;;;;19.27;8.27;;;;;;;;;;5031905;28;20041;-84
2023/01/15 12:50:37;;;;;;;15.50;7.93;;;;;;;;;;5039514;28;20040;-83
2023/01/15 12:53:21;;;;;;;18.25;8.65;;;;;;;;;;5021264;28;20073;-86
2023/01/15 12:55:57;;;;;;;21.63;8.65;;;;;;;;;;5034556;28;20443;-82
2023/01/15 12:58:30;;;;;;;18.35;7.90;;;;;;;;;;5033229;28;20029;-82
2023/01/15 13:01:18;;;;;;;14.90;7.82;;;;;;;;;;5033884;28;20037;-81
2023/01/15 13:03:50;;;;;;;14.32;6.93;;;;;;;;;;5022700;28;20576;-82
2023/01/15 13:06:19;;;;;;;13.45;6.85;;;;;;;;;;5023954;28;20041;-83
2023/01/15 13:08:47;;;;;;;14.02;6.55;;;;;;;;;;5033837;28;20087;-82
2023/01/15 13:11:13;;;;;;;13.40;6.75;;;;;;;;;;5028922;28;20389;-81
2023/01/15 13:13:39;;;;;;;15.40;6.40;;;;;;;;;;5035727;28;20065;-83
2023/01/15 13:16:11;;;;;;;19.45;7.40;;;;;;;;;;5020511;28;20033;-83
2023/01/15 13:18:36;;;;;;;21.15;6.97;;;;;;;;;;5041027;28;20469;-84
2023/01/15 13:21:08;;;;;;;13.68;6.93;;;;;;;;;;5031183;28;20091;-83
2023/01/15 13:23:51;;;;;;;16.65;7.22;;;;;;;;;;4997773;28;20232;-82
2023/01/15 13:26:17;;;;;;;13.73;6.90;;;;;;;;;;5019739;28;20087;-84
2023/01/15 13:29:01;;;;;;;16.05;6.95;;;;;;;;;;5026991;28;20026;-83
2023/01/15 13:31:42;;;;;;;18.02;7.05;;;;;;;;;;5030139;28;20385;-84
2023/01/15 13:34:14;;;;;;;17.90;6.80;;;;;;;;;;5035044;28;20038;-85
2023/01/15 13:36:41;;;;;;;19.25;6.45;;;;;;;;;;5011566;28;20037;-83
2023/01/15 13:39:07;;;;;;;16.13;7.20;;;;;;;;;;5035658;28;20092;-82
2023/01/15 13:44:20;;;;;;;19.48;7.25;;;;;;;;;;5029917;28;20551;-82
2023/01/15 13:46:46;;;;;;;17.92;6.82;;;;;;;;;;5021301;28;20042;-84
2023/01/15 13:49:22;;;;;;;13.15;7.20;;;;;;;;;;5029932;28;20065;-81
2023/01/15 13:51:48;;;;;;;14.98;7.32;;;;;;;;;;5032523;28;20033;-82
2023/01/15 13:54:17;;;;;;;18.92;8.05;;;;;;;;;;5031804;28;20108;-82
2023/01/15 13:56:44;;;;;;;17.55;6.72;;;;;;;;;;5031787;28;20107;-82
2023/01/15 13:59:28;;;;;;;15.98;6.72;;;;;;;;;;5033044;28;20021;-82
2023/01/15 14:01:54;;;;;;;17.02;7.03;;;;;;;;;;5031794;28;20029;-82
2023/01/15 14:04:30;;;;;;;18.25;7.72;;;;;;;;;;5031286;28;20072;-81
2023/01/15 14:06:55;;;;;;;15.77;7.32;;;;;;;;;;5010159;28;20039;-82
2023/01/15 14:09:21;;;;;;;19.13;7.15;;;;;;;;;;5032377;28;20446;-82
2023/01/15 14:12:05;;;;;;;14.55;6.32;;;;;;;;;;5033968;28;20043;-80
2023/01/15 14:14:33;;;;;;;13.63;6.90;;;;;;;;;;5033484;28;20037;-81
2023/01/15 14:17:19;;;;;;;15.45;6.45;;;;;;;;;;5033565;28;20026;-81
2023/01/15 14:19:53;;;;;;;21.50;8.15;;;;;;;;;;5046554;28;20132;-81
2023/01/15 14:22:19;;;;;;;16.10;8.00;;;;;;;;;;5034688;28;20099;-83
2023/01/15 14:25:00;;;;;;;18.38;7.72;;;;;;;;;;5033855;28;20033;-83
2023/01/15 14:27:35;;;;;;;20.90;8.52;;;;;;;;;;5032650;28;20128;-82
2023/01/15 14:30:06;;;;;;;23.05;7.88;;;;;;;;;;5031998;28;20036;-82
2023/01/15 14:32:37;;;;;;;20.63;8.20;;;;;;;;;;5032536;28;20025;-80
2023/01/15 14:35:02;;;;;;;20.30;8.20;;;;;;;;;;5032452;28;20029;-81
2023/01/15 14:37:28;;;;;;;19.67;7.97;;;;;;;;;;5032566;28;20395;-82
2023/01/15 14:39:57;;;;;;;;;;;;;;;;;;5031463;28;20033;-82
2023/01/15 14:45:09;;;;;;;17.67;7.88;;;;;;;;;;5031852;28;20033;-81
2023/01/15 14:47:36;;;;;;;21.92;8.05;;;;;;;;;;5033638;28;20044;-81
2023/01/15 14:50:22;;;;;;;17.30;7.65;;;;;;;;;;5026417;28;20449;-84
2023/01/15 14:52:48;;;;;;;17.90;7.22;;;;;;;;;;5023608;28;20037;-83
2023/01/15 14:55:13;;;;;;;17.45;6.78;;;;;;;;;;5030401;28;20075;-83
2023/01/15 14:57:40;;;;;;;19.00;8.02;;;;;;;;;;5031432;28;20376;-82
2023/01/15 15:00:06;;;;;;;13.65;6.70;;;;;;;;;;5029464;28;20033;-81
2023/01/15 15:02:32;;;;;;;;;;;;;;;;;;5030416;28;20029;-82
2023/01/15 15:04:57;;;;;;;15.60;7.38;;;;;;;;;;5029801;28;19920;-80
2023/01/15 15:07:27;;;;;;;20.20;7.55;;;;;;;;;;5014517;28;20041;-81
2023/01/15 15:10:04;;;;;;;19.77;7.70;;;;;;;;;;5013950;28;20113;-81
2023/01/15 15:12:32;;;;;;;16.48;8.18;;;;;;;;;;5030246;28;20421;-81
2023/01/15 15:14:58;;;;;;;16.95;7.60;;;;;;;;;;5027710;28;20118;-81
2023/01/15 15:17:46;;;;;;;15.48;7.28;;;;;;;;;;5030538;28;20488;-81
2023/01/15 15:20:22;;;;;;;15.68;6.97;;;;;;;;;;5023398;28;20518;-82
2023/01/15 15:22:48;;;;;;;19.43;7.60;;;;;;;;;;5028533;28;20472;-81
2023/01/15 15:25:13;;;;;;;;;;;;;;;;;;5030047;28;20030;-81
2023/01/15 15:27:39;;;;;;;20.33;7.13;;;;;;;;;;5030635;28;20032;-80
2023/01/15 15:30:06;;;;;;;19.40;7.35;;;;;;;;;;5027893;28;20033;-83
2023/01/15 15:32:38;;;;;;;;;;;;;;;;;;5031216;28;20112;-82
2023/01/15 15:35:04;;;;;;;19.45;6.93;;;;;;;;;;5031518;28;19919;-81
2023/01/15 15:37:31;;;;;;;18.75;7.50;;;;;;;;;;5031775;28;20488;-82
2023/01/15 15:39:59;;;;;;;19.63;7.30;;;;;;;;;;5029851;28;20088;-83